Time;durP1;ratioP1;P1;durP2;ratioP2;P2;SDS_P1;SDS_P2;PMS_P1;PMS_P2;Temp;Humidity;BMP_temperature;BMP_pressure;BME280_temperature;BME280_humidity;BME280_pressure;Samples;Min_cycle;Max_cycle;Signal;HPM_P1;HPM_P2
2023/07/12 00:02:19;;;;;;;;;11.00;9.80;;;;;23.36;50.54;99080.38;5033578;28;8966;-58
2023/07/12 00:04:47;;;;;;;;;10.00;8.40;;;;;23.37;50.70;99094.81;5017042;28;8834;-60
2023/07/12 00:07:15;;;;;;;;;8.40;8.40;;;;;23.35;50.57;99086.03;5013519;28;8818;-59
2023/07/12 00:09:43;;;;;;;;;9.60;9.40;;;;;23.37;50.92;99081.22;5014864;28;8811;-59
2023/07/12 00:12:10;;;;;;;;;8.00;6.00;;;;;23.40;50.93;99083.47;5013648;28;8853;-60
2023/07/12 00:14:38;;;;;;;;;9.20;8.80;;;;;23.43;50.79;99089.28;5013474;28;8849;-60
2023/07/12 00:17:06;;;;;;;;;7.40;7.40;;;;;23.47;51.00;99097.81;5013542;28;8802;-58
2023/07/12 00:19:34;;;;;;;;;6.00;6.00;;;;;23.48;50.71;99096.75;5014718;28;8826;-60
2023/07/12 00:22:02;;;;;;;;;9.60;9.00;;;;;23.48;50.78;99091.34;5013583;28;8814;-58
2023/07/12 00:24:30;;;;;;;;;9.40;9.20;;;;;23.45;51.13;99086.34;5033493;28;8859;-60
2023/07/12 00:26:58;;;;;;;;;9.00;8.80;;;;;23.41;51.32;99085.97;5032744;28;8808;-58
2023/07/12 00:29:25;;;;;;;;;8.20;8.20;;;;;23.39;51.37;99089.97;5020274;28;8811;-59
2023/07/12 00:31:54;;;;;;;;;10.40;9.00;;;;;23.36;51.45;99088.53;5013716;28;8835;-59
2023/07/12 00:34:22;;;;;;;;;7.60;6.40;;;;;23.30;51.64;99085.88;5013365;28;8833;-58
2023/07/12 00:36:49;;;;;;;;;5.00;5.00;;;;;23.24;52.02;99092.19;5013901;28;8842;-58
2023/07/12 00:39:17;;;;;;;;;5.20;5.20;;;;;23.19;52.11;99092.88;5014186;28;8842;-57
2023/07/12 00:41:45;;;;;;;;;4.40;4.40;;;;;23.13;52.33;99092.91;5013307;28;8814;-59
2023/07/12 00:44:13;;;;;;;;;6.00;6.00;;;;;23.11;51.96;99098.56;5014165;28;8830;-59
2023/07/12 00:46:40;;;;;;;;;4.00;4.00;;;;;23.09;52.55;99092.53;5013634;28;8860;-58
2023/07/12 00:49:08;;;;;;;;;4.40;4.40;;;;;23.08;52.35;99109.03;5013374;28;8846;-58
2023/07/12 00:51:36;;;;;;;;;5.20;4.60;;;;;23.06;52.30;99135.59;5014615;28;8811;-59
2023/07/12 00:54:04;;;;;;;;;4.00;3.60;;;;;23.05;52.48;99134.75;5013285;28;8968;-57
2023/07/12 00:56:32;;;;;;;;;4.00;3.60;;;;;23.04;52.81;99134.97;5017957;28;8846;-58
2023/07/12 00:58:59;;;;;;;;;5.20;4.80;;;;;23.04;52.54;99127.66;5021082;28;8834;-58
2023/07/12 01:01:27;;;;;;;;;6.00;5.00;;;;;23.02;52.66;99132.50;5013190;28;8961;-59
2023/07/12 01:03:55;;;;;;;;;5.60;5.00;;;;;22.99;53.23;99140.25;5013360;28;9607;-60
2023/07/12 01:06:23;;;;;;;;;4.20;4.00;;;;;22.96;53.08;99136.09;5017600;28;8936;-59
2023/07/12 01:08:51;;;;;;;;;4.80;4.60;;;;;22.95;53.34;99130.88;5014223;28;8859;-59
2023/07/12 01:11:18;;;;;;;;;5.00;5.00;;;;;22.92;53.14;99132.13;5014657;28;8818;-59
2023/07/12 01:13:47;;;;;;;;;4.80;4.80;;;;;22.87;53.04;99139.28;5014518;28;8864;-59
2023/07/12 01:16:15;;;;;;;;;3.60;3.60;;;;;22.80;53.53;99143.94;5031949;28;8828;-58
2023/07/12 01:18:43;;;;;;;;;4.80;4.80;;;;;22.73;53.70;99151.28;5031709;28;8862;-58
2023/07/12 01:21:11;;;;;;;;;4.00;4.00;;;;;22.65;53.52;99143.41;5031111;28;8852;-58
2023/07/12 01:23:39;;;;;;;;;4.00;4.00;;;;;22.60;53.69;99143.22;5031709;28;8843;-58
2023/07/12 01:26:06;;;;;;;;;5.40;4.40;;;;;22.54;53.66;99152.25;5031329;28;8848;-57
2023/07/12 01:28:34;;;;;;;;;5.00;3.60;;;;;22.49;54.24;99143.91;5031385;28;8860;-57
2023/07/12 01:31:02;;;;;;;;;2.40;2.40;;;;;22.44;53.90;99151.88;5031493;28;8839;-58
2023/07/12 01:33:30;;;;;;;;;4.00;4.00;;;;;22.39;54.09;99157.09;5031474;28;8832;-57
2023/07/12 01:35:58;;;;;;;;;3.20;3.20;;;;;22.34;54.04;99157.75;5032165;28;8820;-58
2023/07/12 01:38:26;;;;;;;;;4.00;4.00;;;;;22.32;54.44;99164.44;5032747;28;8843;-57
2023/07/12 01:40:53;;;;;;;;;4.40;4.20;;;;;22.31;54.31;99168.19;5032708;28;8851;-58
2023/07/12 01:43:21;;;;;;;;;5.20;5.20;;;;;22.28;54.54;99146.91;5032955;28;8852;-56
2023/07/12 01:45:49;;;;;;;;;5.00;5.00;;;;;22.27;54.28;99137.09;5032038;28;8854;-58
2023/07/12 01:48:16;;;;;;;;;6.00;5.00;;;;;22.27;54.82;99131.69;5032366;28;8828;-57
2023/07/12 01:50:44;;;;;;;;;4.20;4.00;;;;;22.26;54.20;99130.03;5032767;28;8824;-58
2023/07/12 01:53:13;;;;;;;;;4.00;4.00;;;;;22.25;54.47;99131.06;5036212;28;8832;-57
2023/07/12 01:55:41;;;;;;;;;4.00;4.00;;;;;22.25;54.38;99137.31;5035738;28;8858;-57
2023/07/12 01:58:09;;;;;;;;;5.00;5.00;;;;;22.24;54.56;99142.97;5035750;28;8824;-59
2023/07/12 02:00:36;;;;;;;;;4.80;4.80;;;;;22.22;54.65;99145.91;5036130;28;8836;-57
2023/07/12 02:03:04;;;;;;;;;1.00;1.00;;;;;22.22;54.49;99148.59;5035761;28;8828;-59
2023/07/12 02:05:32;;;;;;;;;5.00;5.00;;;;;22.20;54.83;99160.72;5035674;28;8840;-58
2023/07/12 02:08:00;;;;;;;;;4.80;4.00;;;;;22.16;54.50;99159.50;5035456;28;8832;-58
2023/07/12 02:10:28;;;;;;;;;4.00;3.60;;;;;22.13;54.96;99158.03;5030746;28;8829;-57
2023/07/12 02:12:55;;;;;;;;;2.80;2.80;;;;;22.12;54.83;99147.41;5015840;28;8810;-57
2023/07/12 02:15:23;;;;;;;;;5.20;4.60;;;;;22.09;54.84;99137.00;5016272;28;9512;-58
2023/07/12 02:17:51;;;;;;;;;3.60;3.60;;;;;22.05;55.27;99135.75;5034361;28;8820;-59
2023/07/12 02:20:19;;;;;;;;;4.00;4.00;;;;;22.04;55.00;99134.06;5035699;28;9501;-58
2023/07/12 02:22:47;;;;;;;;;2.00;2.00;;;;;22.02;55.21;99136.19;5033346;28;8812;-60
2023/07/12 02:25:14;;;;;;;;;4.00;3.20;;;;;21.98;55.50;99145.78;5035506;28;8860;-59
2023/07/12 02:27:44;;;;;;;;;2.80;2.00;;;;;21.95;55.46;99147.03;5034116;28;9470;-57
2023/07/12 02:30:12;;;;;;;;;2.00;2.00;;;;;21.94;55.27;99164.34;5015658;28;8822;-57
2023/07/12 02:32:40;;;;;;;;;1.40;1.20;;;;;21.92;55.63;99179.16;5029080;28;8980;-56
2023/07/12 02:35:08;;;;;;;;;1.00;0.60;;;;;21.91;55.44;99166.66;5035098;28;8824;-57
2023/07/12 02:37:35;;;;;;;;;1.40;1.40;;;;;21.89;55.33;99172.31;5035134;28;8847;-56
2023/07/12 02:40:03;;;;;;;;;0.80;0.80;;;;;21.81;55.64;99177.13;5035149;28;8840;-58
2023/07/12 02:42:33;;;;;;;;;0.80;0.80;;;;;21.65;55.69;99177.53;5034095;28;8951;-57
2023/07/12 02:45:01;;;;;;;;;1.00;1.00;;;;;21.46;56.63;99181.94;5034901;28;8832;-58
2023/07/12 02:47:29;;;;;;;;;2.00;2.00;;;;;21.30;56.77;99189.66;5034461;28;8838;-59
2023/07/12 02:49:57;;;;;;;;;1.00;1.00;;;;;21.15;56.93;99192.56;5034498;28;8974;-60
2023/07/12 02:52:24;;;;;;;;;1.60;1.40;;;;;21.04;57.26;99195.06;5034512;28;8820;-58
2023/07/12 02:54:52;;;;;;;;;1.00;1.00;;;;;20.95;57.61;99212.56;5015950;28;8866;-58
2023/07/12 02:57:20;;;;;;;;;0.00;0.00;;;;;20.87;57.73;99218.16;5019191;28;8804;-59
2023/07/12 02:59:48;;;;;;;;;1.00;1.00;;;;;20.79;58.16;99216.44;5017267;28;8818;-57
2023/07/12 03:02:15;;;;;;;;;2.00;1.00;;;;;20.72;57.64;99225.59;5014521;28;8838;-60
2023/07/12 03:04:43;;;;;;;;;0.40;0.40;;;;;20.65;57.85;99222.03;5014892;28;8838;-58
2023/07/12 03:07:12;;;;;;;;;1.20;1.00;;;;;20.58;58.16;99221.16;5016033;28;8837;-59
2023/07/12 03:09:39;;;;;;;;;1.40;1.20;;;;;20.45;58.84;99233.78;5015639;28;8829;-59
2023/07/12 03:12:07;;;;;;;;;1.00;1.00;;;;;20.35;58.87;99258.53;5018055;28;8926;-59
2023/07/12 03:14:36;;;;;;;;;1.00;0.80;;;;;20.31;58.72;99259.13;5033893;28;8819;-59
2023/07/12 03:17:05;;;;;;;;;1.00;1.00;;;;;20.31;58.51;99265.34;5033152;28;8811;-58
2023/07/12 03:19:33;;;;;;;;;1.80;1.80;;;;;20.32;58.94;99260.78;5023501;28;9517;-59
2023/07/12 03:22:01;;;;;;;;;1.00;1.00;;;;;20.33;58.91;99254.34;5034362;28;8848;-60
2023/07/12 03:24:29;;;;;;;;;1.00;0.00;;;;;20.32;58.49;99237.28;5034130;28;8932;-59
2023/07/12 03:26:56;;;;;;;;;1.00;1.00;;;;;20.33;58.90;99252.47;5034414;28;8843;-59
2023/07/12 03:29:24;;;;;;;;;1.00;1.00;;;;;20.35;58.89;99247.72;5034270;28;8836;-59
2023/07/12 03:31:52;;;;;;;;;1.00;1.00;;;;;20.36;59.05;99246.66;5034582;28;8856;-59
2023/07/12 03:34:19;;;;;;;;;1.00;1.00;;;;;20.35;59.03;99253.13;5033916;28;8839;-57
2023/07/12 03:36:47;;;;;;;;;2.00;1.00;;;;;20.34;59.20;99254.13;5033756;28;8812;-57
2023/07/12 03:39:15;;;;;;;;;1.00;1.00;;;;;20.34;58.52;99270.34;5034093;28;8820;-58
2023/07/12 03:41:42;;;;;;;;;2.00;2.00;;;;;20.34;58.63;99280.34;5033906;28;8870;-59
2023/07/12 03:44:10;;;;;;;;;1.00;1.00;;;;;20.32;58.87;99294.06;5034343;28;8999;-58
2023/07/12 03:46:38;;;;;;;;;3.20;2.00;;;;;20.30;58.95;99287.19;5033794;28;8836;-57
2023/07/12 03:49:06;;;;;;;;;2.00;2.00;;;;;20.27;59.34;99306.53;5033876;28;8835;-57
2023/07/12 03:51:33;;;;;;;;;1.00;1.00;;;;;20.23;59.54;99316.06;5021471;28;8811;-57
2023/07/12 03:54:01;;;;;;;;;1.60;1.60;;;;;20.17;59.63;99312.28;5014608;28;9457;-57
2023/07/12 03:56:29;;;;;;;;;1.80;1.80;;;;;20.14;59.53;99317.25;5027583;28;8828;-59
2023/07/12 03:58:57;;;;;;;;;2.40;2.00;;;;;20.12;59.45;99317.47;5033132;28;8839;-59
2023/07/12 04:01:24;;;;;;;;;2.00;1.00;;;;;20.09;59.80;99306.22;5033455;28;8823;-59
2023/07/12 04:03:52;;;;;;;;;1.80;1.60;;;;;20.06;59.64;99302.03;5033679;28;8836;-59
2023/07/12 04:06:20;;;;;;;;;1.80;1.80;;;;;20.06;59.60;99306.59;5031485;28;8908;-57
2023/07/12 04:08:47;;;;;;;;;1.40;1.40;;;;;20.03;59.71;99305.06;5031351;28;8832;-56
2023/07/12 04:11:15;;;;;;;;;1.40;1.40;;;;;20.00;59.89;99300.06;5032928;28;8827;-59
2023/07/12 04:13:43;;;;;;;;;1.80;1.00;;;;;20.01;59.93;99306.34;5032289;28;8831;-59
2023/07/12 04:16:13;;;;;;;;;1.00;1.00;;;;;20.01;59.66;99301.75;5033571;28;9473;-58
2023/07/12 04:18:41;;;;;;;;;1.00;1.00;;;;;20.04;59.14;99303.22;5026377;28;8856;-59
2023/07/12 04:21:09;;;;;;;;;2.00;2.00;;;;;20.00;59.81;99283.84;5021519;28;8824;-59
2023/07/12 04:23:37;;;;;;;;;1.00;1.00;;;;;19.95;59.39;99289.00;5013415;28;8814;-59
2023/07/12 04:26:05;;;;;;;;;2.00;1.60;;;;;19.91;59.98;99276.94;5022385;28;8816;-59
2023/07/12 04:28:33;;;;;;;;;1.00;1.00;;;;;19.89;59.55;99280.88;5032746;28;8824;-59
2023/07/12 04:31:01;;;;;;;;;2.80;2.00;;;;;19.85;59.98;99283.13;5032870;28;8823;-58
2023/07/12 04:33:29;;;;;;;;;2.00;2.00;;;;;19.82;60.03;99280.84;5032636;28;8804;-59
2023/07/12 04:35:56;;;;;;;;;1.00;1.00;;;;;19.83;60.24;99263.59;5033063;28;8828;-58
2023/07/12 04:38:24;;;;;;;;;3.60;1.60;;;;;19.84;59.57;99262.53;5031595;28;8841;-56
2023/07/12 04:40:52;;;;;;;;;3.40;1.00;;;;;19.84;59.72;99265.25;5032727;28;8832;-60
2023/07/12 04:43:19;;;;;;;;;2.00;2.00;;;;;19.85;59.68;99272.31;5031005;28;8828;-59
2023/07/12 04:45:47;;;;;;;;;1.00;1.00;;;;;19.86;59.63;99270.47;5013484;28;8844;-59
2023/07/12 04:48:15;;;;;;;;;1.00;1.00;;;;;19.86;60.00;99268.56;5014235;28;8834;-60
2023/07/12 04:50:43;;;;;;;;;1.00;1.00;;;;;19.89;59.77;99273.56;5032371;28;8910;-60
2023/07/12 04:53:12;;;;;;;;;1.00;1.00;;;;;19.95;59.41;99261.16;5031369;28;8835;-59
2023/07/12 04:55:39;;;;;;;;;2.00;2.00;;;;;20.02;59.18;99254.75;5029092;28;8828;-59
2023/07/12 04:58:07;;;;;;;;;1.40;1.00;;;;;20.09;59.85;99262.97;5015911;28;8837;-60
2023/07/12 05:00:35;;;;;;;;;0.60;0.20;;;;;20.14;58.94;99261.31;5012850;28;8842;-60
2023/07/12 05:03:03;;;;;;;;;1.60;1.60;;;;;20.17;58.77;99263.59;5013035;28;8936;-57
2023/07/12 05:05:31;;;;;;;;;1.00;1.00;;;;;20.19;58.62;99268.81;5018518;28;8812;-60
2023/07/12 05:07:59;;;;;;;;;1.80;1.80;;;;;20.20;58.93;99270.50;5029659;28;8944;-60
2023/07/12 05:10:27;;;;;;;;;2.00;2.00;;;;;20.19;59.21;99277.75;5012840;28;8853;-59
2023/07/12 05:12:54;;;;;;;;;0.00;0.00;;;;;20.15;59.13;99270.25;5013073;28;9507;-60
2023/07/12 05:15:23;;;;;;;;;1.60;1.00;;;;;20.07;59.68;99262.28;5012713;28;8885;-59
2023/07/12 05:17:51;;;;;;;;;2.00;1.20;;;;;20.00;59.86;99267.63;5012999;28;9594;-59
2023/07/12 05:20:19;;;;;;;;;2.80;2.00;;;;;19.94;59.77;99271.13;5027268;28;8831;-57
2023/07/12 05:22:48;;;;;;;;;1.00;1.00;;;;;19.89;60.10;99278.97;5032238;28;8832;-59
2023/07/12 05:25:15;;;;;;;;;2.80;1.00;;;;;19.84;60.47;99286.88;5033146;28;8836;-58
2023/07/12 05:27:43;;;;;;;;;1.00;1.00;;;;;19.87;60.04;99299.16;5035450;28;8832;-59
2023/07/12 05:30:12;;;;;;;;;1.60;1.00;;;;;19.95;60.03;99296.31;5035450;28;8836;-59
2023/07/12 05:32:40;;;;;;;;;0.20;0.00;;;;;20.03;59.59;99298.84;5035286;28;8967;-58
2023/07/12 05:35:08;;;;;;;;;1.60;1.00;;;;;20.10;59.84;99303.28;5035002;28;8848;-58
2023/07/12 05:37:36;;;;;;;;;0.00;0.00;;;;;20.18;59.54;99295.03;5035359;28;9578;-58
2023/07/12 05:40:05;;;;;;;;;0.40;0.40;;;;;20.26;59.33;99305.69;5035190;28;8844;-57
2023/07/12 05:42:33;;;;;;;;;0.00;0.00;;;;;20.28;59.33;99298.22;5035318;28;8977;-57
2023/07/12 05:45:00;;;;;;;;;0.00;0.00;;;;;20.29;59.18;99308.00;5034856;28;8978;-58
2023/07/12 05:47:29;;;;;;;;;1.00;1.00;;;;;20.33;59.52;99308.44;5033885;28;8832;-59
2023/07/12 05:49:56;;;;;;;;;0.00;0.00;;;;;20.43;58.66;99315.16;5035558;28;8824;-59
2023/07/12 05:52:24;;;;;;;;;1.00;1.00;;;;;20.57;58.22;99327.72;5035425;28;8832;-57
2023/07/12 05:54:52;;;;;;;;;0.80;0.00;;;;;20.64;58.29;99325.88;5035391;28;8864;-59
2023/07/12 05:57:20;;;;;;;;;0.80;0.40;;;;;20.67;58.14;99318.19;5022823;28;8853;-59
2023/07/12 05:59:49;;;;;;;;;1.60;1.00;;;;;20.61;58.40;99330.84;5015281;28;8845;-57
2023/07/12 06:02:17;;;;;;;;;0.40;0.40;;;;;20.56;58.50;99328.75;5015401;28;8819;-58
2023/07/12 06:04:45;;;;;;;;;0.00;0.00;;;;;20.62;59.04;99325.25;5016371;28;8907;-59
2023/07/12 06:07:12;;;;;;;;;0.00;0.00;;;;;20.70;58.30;99326.94;5014803;28;8838;-58
2023/07/12 06:09:40;;;;;;;;;1.00;0.00;;;;;20.82;57.78;99337.00;5016423;28;8840;-57
2023/07/12 06:12:08;;;;;;;;;0.00;0.00;;;;;20.97;57.73;99332.31;5015222;28;8945;-58
2023/07/12 06:14:36;;;;;;;;;1.00;1.00;;;;;21.13;57.18;99342.78;5015212;28;8948;-60
2023/07/12 06:17:04;;;;;;;;;0.60;0.00;;;;;21.13;57.23;99345.47;5014821;28;8834;-57
2023/07/12 06:19:31;;;;;;;;;0.00;0.00;;;;;21.07;57.72;99357.13;5019114;28;8966;-57
2023/07/12 06:22:00;;;;;;;;;0.00;0.00;;;;;21.00;57.76;99356.25;5025583;28;8826;-59
2023/07/12 06:24:28;;;;;;;;;0.00;0.00;;;;;20.94;57.94;99357.91;5014307;28;8874;-58
2023/07/12 06:26:55;;;;;;;;;0.20;0.00;;;;;20.85;57.94;99356.38;5021619;28;8836;-60
2023/07/12 06:29:24;;;;;;;;;1.00;1.00;;;;;20.81;57.66;99367.81;5032566;28;8820;-59
2023/07/12 06:31:54;;;;;;;;;0.00;0.00;;;;;20.76;58.53;99364.88;5033352;28;9185;-59
2023/07/12 06:34:22;;;;;;;;;0.00;0.00;;;;;20.67;58.34;99368.78;5032485;28;8824;-59
2023/07/12 06:36:49;;;;;;;;;0.00;0.00;;;;;20.55;58.88;99373.06;5032123;28;8832;-58
2023/07/12 06:39:17;;;;;;;;;0.00;0.00;;;;;20.46;59.02;99368.84;5031346;28;8862;-57
2023/07/12 06:41:46;;;;;;;;;0.40;0.40;;;;;20.43;59.45;99371.97;5033373;28;8824;-59
2023/07/12 06:44:15;;;;;;;;;0.00;0.00;;;;;20.36;59.05;99383.78;5033630;28;8885;-59
2023/07/12 06:46:43;;;;;;;;;0.20;0.20;;;;;20.27;59.17;99383.09;5034066;28;9813;-57
2023/07/12 06:49:15;;;;;;;;;1.00;1.00;;;;;20.17;59.63;99379.06;5033949;28;8817;-58
2023/07/12 06:51:46;;;;;;;;;0.00;0.00;;;;;20.12;59.95;99392.34;5034638;28;8835;-60
2023/07/12 06:54:14;;;;;;;;;0.00;0.00;;;;;20.04;60.01;99395.97;5027439;28;8861;-59
2023/07/12 06:56:42;;;;;;;;;0.20;0.00;;;;;19.96;60.08;99389.88;5014358;28;8993;-57
2023/07/12 06:59:09;;;;;;;;;1.20;1.00;;;;;19.91;60.34;99395.88;5031986;28;8830;-57
2023/07/12 07:01:37;;;;;;;;;1.00;0.20;;;;;19.88;60.24;99396.25;5032997;28;8819;-59
2023/07/12 07:04:05;;;;;;;;;0.00;0.00;;;;;19.86;60.46;99387.50;5033136;28;8832;-57
2023/07/12 07:06:34;;;;;;;;;1.00;1.00;;;;;19.84;60.42;99391.41;5031376;28;8842;-58
2023/07/12 07:09:02;;;;;;;;;1.00;0.40;;;;;19.77;60.32;99394.06;5025436;28;8826;-59
2023/07/12 07:11:29;;;;;;;;;0.00;0.00;;;;;19.76;60.44;99386.16;5014219;28;8859;-58
2023/07/12 07:13:58;;;;;;;;;1.00;1.00;;;;;19.80;60.53;99382.06;5013358;28;8914;-59
2023/07/12 07:16:26;;;;;;;;;1.00;1.00;;;;;19.90;60.11;99379.84;5021525;28;9488;-57
2023/07/12 07:18:54;;;;;;;;;1.40;1.40;;;;;20.07;60.06;99384.81;5033188;28;8831;-57
2023/07/12 07:21:21;;;;;;;;;0.00;0.00;;;;;20.27;59.74;99383.09;5033572;28;8808;-59
2023/07/12 07:23:49;;;;;;;;;1.00;1.00;;;;;20.46;59.23;99378.88;5033254;28;8835;-60
2023/07/12 07:26:17;;;;;;;;;0.20;0.20;;;;;20.58;58.82;99386.22;5033650;28;9533;-58
2023/07/12 07:28:45;;;;;;;;;1.40;0.60;;;;;20.70;58.66;99379.19;5033669;28;8942;-57
2023/07/12 07:31:15;;;;;;;;;1.00;1.00;;;;;20.90;58.42;99393.72;5033869;28;8844;-58
2023/07/12 07:33:42;;;;;;;;;1.00;1.00;;;;;21.00;57.96;99389.59;5033342;28;8808;-58
2023/07/12 07:36:10;;;;;;;;;1.00;1.00;;;;;21.18;57.69;99391.75;5033584;28;8844;-57
2023/07/12 07:38:39;;;;;;;;;0.80;0.80;;;;;21.36;57.15;99389.31;5033168;28;8858;-57
2023/07/12 07:41:09;;;;;;;;;2.00;1.60;;;;;21.54;56.97;99392.25;5033506;28;8836;-57
2023/07/12 07:43:39;;;;;;;;;1.00;1.00;;;;;21.57;56.94;99400.00;5033500;28;8816;-57
2023/07/12 07:46:07;;;;;;;;;0.60;0.60;;;;;21.53;57.03;99401.44;5032792;28;8970;-59
2023/07/12 07:48:35;;;;;;;;;0.00;0.00;;;;;21.43;57.09;99406.41;5029737;28;8852;-57
2023/07/12 07:51:04;;;;;;;;;1.00;1.00;;;;;21.50;57.58;99401.84;5032100;28;8861;-59
2023/07/12 07:53:33;;;;;;;;;0.00;0.00;;;;;21.69;56.89;99409.22;5032352;28;8851;-57
2023/07/12 07:56:01;;;;;;;;;1.00;1.00;;;;;21.87;56.47;99404.06;5032213;28;9727;-57
2023/07/12 07:58:29;;;;;;;;;1.40;1.00;;;;;22.10;55.74;99408.00;5031163;28;8848;-59
2023/07/12 08:00:56;;;;;;;;;1.60;1.60;;;;;22.26;55.66;99404.06;5012507;28;8936;-59
2023/07/12 08:03:24;;;;;;;;;0.60;0.60;;;;;22.28;55.51;99412.81;5012234;28;8914;-58
2023/07/12 08:05:52;;;;;;;;;1.00;1.00;;;;;22.24;55.91;99417.81;5012725;28;8864;-59
2023/07/12 08:08:20;;;;;;;;;1.00;1.00;;;;;22.09;55.87;99419.91;5013626;28;8850;-60
2023/07/12 08:10:49;;;;;;;;;1.60;1.00;;;;;21.96;56.49;99413.66;5012360;28;8834;-57
2023/07/12 08:13:17;;;;;;;;;4.00;2.00;;;;;21.87;56.31;99418.41;5012268;28;8860;-59
2023/07/12 08:15:45;;;;;;;;;0.00;0.00;;;;;21.79;56.32;99425.94;5012891;28;8819;-58
2023/07/12 08:18:13;;;;;;;;;2.00;1.80;;;;;21.82;56.25;99412.81;5012684;28;8844;-58
2023/07/12 08:20:41;;;;;;;;;1.20;1.20;;;;;21.89;56.32;99407.38;5013133;28;8850;-58
2023/07/12 08:23:09;;;;;;;;;1.00;1.00;;;;;21.95;56.05;99406.56;5012822;28;8860;-59
2023/07/12 08:25:37;;;;;;;;;3.00;1.80;;;;;21.94;56.29;99411.13;5029644;28;8898;-58
2023/07/12 08:28:05;;;;;;;;;0.20;0.20;;;;;22.02;56.12;99415.53;5031885;28;8855;-59
2023/07/12 08:30:33;;;;;;;;;1.00;0.60;;;;;22.07;55.88;99415.72;5027068;28;9614;-59
2023/07/12 08:33:02;;;;;;;;;2.80;2.80;;;;;22.16;55.30;99419.94;5025355;28;8858;-59
2023/07/12 08:35:30;;;;;;;;;0.00;0.00;;;;;22.28;55.13;99410.94;5029255;28;8828;-59
2023/07/12 08:38:15;;;;;;;;;1.20;1.20;;;;;22.32;55.10;99414.09;5031814;28;8839;-58
2023/07/12 08:40:43;;;;;;;;;1.00;1.00;;;;;22.37;54.87;99416.97;5015684;28;8822;-59
2023/07/12 08:43:11;;;;;;;;;1.00;1.00;;;;;22.47;54.12;99422.88;5011875;28;8857;-59
2023/07/12 08:45:39;;;;;;;;;1.00;1.00;;;;;22.62;54.29;99415.34;5011616;28;8837;-59
2023/07/12 08:48:07;;;;;;;;;0.60;0.60;;;;;22.84;53.41;99417.56;5012026;28;8851;-59
2023/07/12 08:50:35;;;;;;;;;1.00;1.00;;;;;22.95;53.13;99411.50;5011297;28;8834;-57
2023/07/12 08:53:04;;;;;;;;;0.60;0.60;;;;;22.98;53.63;99416.47;5011642;28;8834;-57
2023/07/12 08:55:32;;;;;;;;;1.20;1.20;;;;;22.95;53.20;99425.06;5011455;28;9609;-59
2023/07/12 08:58:01;;;;;;;;;2.00;2.00;;;;;22.99;53.18;99415.44;5027337;28;8950;-60
2023/07/12 09:00:30;;;;;;;;;1.20;1.20;;;;;23.00;53.32;99414.38;5030077;28;8824;-58
2023/07/12 09:02:58;;;;;;;;;2.00;1.80;;;;;23.12;53.31;99414.53;5022791;28;8815;-60
2023/07/12 09:05:26;;;;;;;;;1.40;1.40;;;;;23.19;52.50;99418.09;5031086;28;8898;-58
2023/07/12 09:07:54;;;;;;;;;1.40;1.40;;;;;23.25;52.70;99420.81;5027573;28;8820;-57
2023/07/12 09:10:22;;;;;;;;;4.00;2.40;;;;;23.28;52.57;99431.25;5031774;28;8854;-59
2023/07/12 09:12:50;;;;;;;;;1.40;1.40;;;;;23.42;51.87;99429.28;5029997;28;8897;-59
2023/07/12 09:15:19;;;;;;;;;1.20;1.20;;;;;23.56;51.84;99439.91;5031869;28;8937;-60
2023/07/12 09:17:47;;;;;;;;;2.40;2.40;;;;;23.65;51.52;99429.59;5019164;28;8935;-60
2023/07/12 09:20:15;;;;;;;;;0.80;0.80;;;;;23.76;51.29;99443.31;5031953;28;9506;-60
2023/07/12 09:22:43;;;;;;;;;1.00;1.00;;;;;23.78;51.29;99440.41;5031904;28;8823;-60
2023/07/12 09:25:11;;;;;;;;;1.00;1.00;;;;;23.93;50.61;99438.25;5032003;28;8987;-58
2023/07/12 09:27:39;;;;;;;;;1.00;1.00;;;;;24.17;50.40;99440.16;5031988;28;8820;-61
2023/07/12 09:30:08;;;;;;;;;2.00;2.00;;;;;24.30;49.69;99440.06;5032130;28;8828;-59
2023/07/12 09:32:36;;;;;;;;;1.00;1.00;;;;;24.41;49.29;99442.91;5031874;28;8832;-61
2023/07/12 09:35:05;;;;;;;;;1.40;1.00;;;;;24.50;49.54;99438.03;5031458;28;9537;-59
2023/07/12 09:37:36;;;;;;;;;2.00;2.00;;;;;24.54;49.29;99437.34;5030677;28;8861;-59
2023/07/12 09:40:04;;;;;;;;;1.00;1.00;;;;;24.54;49.72;99445.50;5030846;28;8846;-58
2023/07/12 09:42:32;;;;;;;;;2.40;2.00;;;;;24.54;49.88;99447.41;5031665;28;8844;-60
2023/07/12 09:45:04;;;;;;;;;1.80;1.80;;;;;24.62;49.45;99442.53;5031219;28;8860;-60
2023/07/12 09:47:34;;;;;;;;;1.80;1.80;;;;;24.85;48.85;99441.88;5030071;28;8824;-60
2023/07/12 09:50:05;;;;;;;;;2.60;2.20;;;;;24.97;48.39;99437.38;5030816;28;8864;-61
2023/07/12 09:52:33;;;;;;;;;2.20;2.20;;;;;25.04;48.50;99440.84;5030133;28;8928;-59
2023/07/12 09:55:03;;;;;;;;;1.80;1.80;;;;;24.87;48.15;99437.06;5029549;28;8863;-60
2023/07/12 09:57:31;;;;;;;;;5.00;2.00;;;;;24.68;48.81;99444.38;5030219;28;8836;-59
2023/07/12 09:59:59;;;;;;;;;1.00;1.00;;;;;24.70;48.69;99439.53;5030257;28;8859;-59
2023/07/12 10:02:27;;;;;;;;;1.80;1.80;;;;;24.87;48.29;99439.78;5030797;28;8976;-60
2023/07/12 10:04:56;;;;;;;;;2.00;2.00;;;;;25.11;47.67;99449.78;5014659;28;8818;-60
2023/07/12 10:07:25;;;;;;;;;2.00;1.60;;;;;25.15;47.79;99453.72;5030112;28;8820;-60
2023/07/12 10:09:53;;;;;;;;;1.60;1.60;;;;;25.35;47.64;99443.44;5029176;28;8832;-60
2023/07/12 10:12:23;;;;;;;;;2.00;1.80;;;;;25.42;47.40;99446.94;5030254;28;8893;-60
2023/07/12 10:14:51;;;;;;;;;2.60;2.00;;;;;25.63;46.84;99451.91;5034618;28;8816;-60
2023/07/12 10:17:19;;;;;;;;;1.40;1.40;;;;;25.98;46.26;99456.47;5034172;28;9466;-59
2023/07/12 10:19:49;;;;;;;;;1.80;1.80;;;;;26.27;45.80;99448.22;5032969;28;8820;-59
2023/07/12 10:22:20;;;;;;;;;1.20;1.00;;;;;26.53;45.66;99455.19;5023219;28;8814;-59
2023/07/12 10:24:48;;;;;;;;;2.00;2.00;;;;;26.84;44.77;99466.63;5014582;28;9564;-58
2023/07/12 10:27:17;;;;;;;;;1.00;1.00;;;;;26.67;45.31;99465.66;5013996;28;8850;-59
2023/07/12 10:29:45;;;;;;;;;2.00;2.00;;;;;26.44;45.00;99465.63;5018262;28;8823;-61
2023/07/12 10:32:13;;;;;;;;;2.60;2.00;;;;;25.95;46.25;99471.41;5034007;28;9493;-58
2023/07/12 10:34:41;;;;;;;;;2.20;2.20;;;;;25.39;47.22;99480.13;5033936;28;9005;-59
2023/07/12 10:37:09;;;;;;;;;2.00;2.00;;;;;25.20;47.82;99475.69;5020925;28;8838;-58
2023/07/12 10:39:37;;;;;;;;;1.20;1.20;;;;;25.38;47.21;99475.69;5028939;28;8948;-60
2023/07/12 10:42:06;;;;;;;;;1.00;1.00;;;;;25.23;47.56;99480.69;5033454;28;8861;-58
2023/07/12 10:44:35;;;;;;;;;1.00;1.00;;;;;25.31;47.13;99485.84;5032279;28;8970;-58
2023/07/12 10:47:03;;;;;;;;;2.00;2.00;;;;;25.49;47.15;99481.22;5020056;28;8844;-58
2023/07/12 10:49:31;;;;;;;;;2.00;2.00;;;;;25.59;46.70;99479.63;5033921;28;8916;-58
2023/07/12 10:52:00;;;;;;;;;1.20;1.20;;;;;26.17;45.98;99488.94;5033137;28;8916;-58
2023/07/12 10:54:29;;;;;;;;;3.00;3.00;;;;;26.82;45.24;99479.69;5033580;28;8844;-58
2023/07/12 10:56:57;;;;;;;;;1.60;1.60;;;;;26.82;44.51;99490.63;5031084;28;8828;-58
2023/07/12 10:59:27;;;;;;;;;2.60;2.60;;;;;26.50;45.29;99491.97;5013791;28;8846;-58
2023/07/12 11:01:55;;;;;;;;;2.40;2.40;;;;;26.20;45.95;99493.91;5013616;28;8864;-60
2023/07/12 11:04:23;;;;;;;;;4.20;3.00;;;;;26.14;45.90;99478.50;5013914;28;9507;-61
2023/07/12 11:06:52;;;;;;;;;2.00;2.00;;;;;26.26;45.74;99484.78;5014717;28;9531;-58
2023/07/12 11:09:20;;;;;;;;;2.00;2.00;;;;;26.63;45.34;99486.31;5030654;28;8865;-59
2023/07/12 11:11:49;;;;;;;;;0.80;0.80;;;;;27.25;43.87;99482.09;5032929;28;8797;-58
2023/07/12 11:14:17;;;;;;;;;1.60;1.00;;;;;27.86;43.34;99474.91;5033383;28;8831;-58
2023/07/12 11:16:45;;;;;;;;;2.00;2.00;;;;;28.46;42.29;99478.78;5032922;28;8967;-61
2023/07/12 11:19:13;;;;;;;;;2.00;2.00;;;;;28.89;41.49;99478.94;5020738;28;8828;-58
2023/07/12 11:21:41;;;;;;;;;1.60;1.20;;;;;29.20;40.78;99478.34;5033077;28;8878;-58
2023/07/12 11:24:09;;;;;;;;;2.80;2.00;;;;;29.74;40.04;99471.94;5032579;28;8840;-58
2023/07/12 11:26:40;;;;;;;;;2.00;2.00;;;;;30.40;39.30;99477.09;5033479;28;8950;-57
2023/07/12 11:29:08;;;;;;;;;2.00;2.00;;;;;30.10;39.97;99485.03;5033678;28;8876;-59
2023/07/12 11:31:39;;;;;;;;;1.00;1.00;;;;;29.35;41.05;99481.31;5034098;28;8840;-58
2023/07/12 11:34:07;;;;;;;;;1.00;1.00;;;;;29.65;40.70;99478.97;5033957;28;8840;-59
2023/07/12 11:36:36;;;;;;;;;1.20;1.20;;;;;30.32;39.97;99474.00;5033780;28;9493;-59
2023/07/12 11:39:04;;;;;;;;;1.00;1.00;;;;;30.19;39.48;99479.91;5033870;28;8936;-59
2023/07/12 11:41:33;;;;;;;;;2.20;1.60;;;;;30.04;39.92;99475.03;5033925;28;8863;-58
2023/07/12 11:44:02;;;;;;;;;2.00;2.00;;;;;30.66;39.35;99480.91;5034046;28;8944;-59
2023/07/12 11:46:29;;;;;;;;;2.00;2.00;;;;;31.35;38.13;99475.91;5032492;28;8912;-61